Wevelgem, Belgium

7:21 AM CET on November 01, 2014 (GMT +0100)
IVLAAMSG8 | Change Station
CLOSE
Current Station
Personal Weather Station
Location: Izegem, West-Vlaanderen
Elevation: 59 ft
Nearby Weather Stations

Elev 59 ft 50.91 °N, 3.20 °E | Updated 1 second ago

Partly Cloudy
Partly Cloudy
52.9 °F
Feels Like 52.9 °F
N
5.9
Wind Variable Wind from SSW
Gusts 5.9 mph

Today
High -- | Low -- °F
--% Chance of Precip.
Yesterday
High -- | Low -- °F
Precip. -- in
7:38 AM 5:22 PM
Waxing Gibbous, 63% visible
Pressure 30.04 in
Visibility 5.0 miles
Clouds Few 24000 ft
Dew Point 48 °F
Humidity 84%
Rainfall 0.00 in
Snow Depth Not available.
UV 0.0 out of 12
Pollen Not available.
Air Quality Not available.
Flu Activity Not available.
SPECI EBFN 010609Z 17008KT 8000 FEW240 12/11 Q1017 BLU

More Conditions Fewer Conditions

Pressure 30.04 in
Visibility 5.0 miles
Clouds Few 24000 ft
Dew Point 48 °F
Humidity 84%
Rainfall 0.00 in
Snow Depth Not available.
UV 0.0 out of 12
Pollen Not available.
Air Quality Not available.
Flu Activity Not available.
SPECI EBFN 010609Z 17008KT 8000 FEW240 12/11 Q1017 BLU

More Conditions Fewer Conditions

10-Day Weather Forecast

Almanac

Astronomy

Nov. 01, 2014 Rise Set
Actual Time
Civil Twilight
Nautical Twilight
Astronomical Twilight
Moon
Length of Visible Light
Length of Day
Tomorrow will be .
, % of the Moon is Illuminated

Today's Extremes

Country Highs Country Lows

Community

WunderPhotos

Upload Photos

1,766,866 photos uploaded!

WunderBlogs® & News

Nearby

Air Quality

  Air Quality AQ Index Pollutant
Not available.

Snow Depth

Station Depth Elevation

Earthquake Activity

City Distance Mag. Time & Date
Minimum magnitude displayed is 2.5.

Coastal Water Temperatures

Place Temperature

Nearby Weather Stations